createdAt,value
2022-07-27T00:01:07.815Z,15.92
2022-07-27T00:04:15.278Z,15.96
2022-07-27T00:07:23.564Z,15.94
2022-07-27T00:10:31.372Z,15.96
2022-07-27T00:13:38.820Z,15.88
2022-07-27T00:16:46.415Z,15.84
2022-07-27T00:19:54.438Z,15.78
2022-07-27T00:23:01.973Z,15.74
2022-07-27T00:26:10.275Z,15.68
2022-07-27T00:29:17.831Z,15.66
2022-07-27T00:32:21.330Z,15.64
2022-07-27T00:35:29.610Z,15.64
2022-07-27T00:38:37.151Z,15.63
2022-07-27T00:41:45.693Z,15.67
2022-07-27T00:44:54.145Z,15.67
2022-07-27T00:48:01.665Z,15.64
2022-07-27T00:51:09.659Z,15.64
2022-07-27T00:54:17.416Z,15.72
2022-07-27T00:57:25.333Z,15.74
2022-07-27T01:00:33.646Z,15.79
2022-07-27T01:03:41.645Z,15.76
2022-07-27T01:06:49.829Z,15.78
2022-07-27T01:09:57.750Z,15.75
2022-07-27T01:13:06.387Z,15.74
2022-07-27T01:16:10.240Z,15.75
2022-07-27T01:19:18.234Z,15.75
2022-07-27T01:22:26.605Z,15.70
2022-07-27T01:25:34.554Z,15.67
2022-07-27T01:28:42.387Z,15.59
2022-07-27T01:31:50.810Z,15.59
2022-07-27T01:34:58.888Z,15.57
2022-07-27T01:38:07.353Z,15.56
2022-07-27T01:41:15.709Z,15.52
2022-07-27T01:44:23.206Z,15.56
2022-07-27T01:47:31.343Z,15.51
2022-07-27T01:50:39.538Z,15.46
2022-07-27T01:53:47.531Z,15.43
2022-07-27T01:56:55.622Z,15.31
2022-07-27T02:00:03.823Z,15.12
2022-07-27T02:03:11.997Z,15.09
2022-07-27T02:06:20.475Z,15.09
2022-07-27T02:09:28.484Z,15.09
2022-07-27T02:12:36.625Z,15.06
2022-07-27T02:15:44.933Z,15.01
2022-07-27T02:18:53.011Z,14.88
2022-07-27T02:22:00.940Z,14.86
2022-07-27T02:25:08.718Z,14.80
2022-07-27T02:28:16.992Z,14.75
2022-07-27T02:31:24.437Z,14.64
2022-07-27T02:34:32.714Z,14.60
2022-07-27T02:37:40.675Z,14.56
2022-07-27T02:40:48.185Z,14.47
2022-07-27T02:43:56.457Z,14.47
2022-07-27T02:47:04.217Z,14.49
2022-07-27T02:50:11.787Z,14.52
2022-07-27T02:53:20.263Z,14.50
2022-07-27T02:56:28.320Z,14.47
2022-07-27T02:59:36.273Z,14.49
2022-07-27T03:02:44.760Z,14.50
2022-07-27T03:05:52.428Z,14.50
2022-07-27T03:09:01.204Z,14.49
2022-07-27T03:12:09.436Z,14.44
2022-07-27T03:15:16.927Z,14.42
2022-07-27T03:18:25.204Z,14.37
2022-07-27T03:21:32.964Z,14.31
2022-07-27T03:24:40.716Z,14.24
2022-07-27T03:27:49.069Z,14.19
2022-07-27T03:30:57.059Z,14.17
2022-07-27T03:34:04.889Z,14.19
2022-07-27T03:37:15.268Z,14.14
2022-07-27T03:40:23.373Z,14.07
2022-07-27T03:43:31.456Z,14.02
2022-07-27T03:46:39.051Z,14.02
2022-07-27T03:49:47.400Z,14.04
2022-07-27T03:52:55.304Z,14.10
2022-07-27T03:56:03.405Z,14.17
2022-07-27T03:59:12.078Z,14.24
2022-07-27T04:02:20.262Z,14.31
2022-07-27T04:05:29.404Z,14.42
2022-07-27T04:08:38.188Z,14.53
2022-07-27T04:11:50.966Z,14.67
2022-07-27T04:14:49.351Z,14.86
2022-07-27T04:17:58.048Z,15.01
2022-07-27T04:21:06.583Z,15.19
2022-07-27T04:24:14.861Z,15.31
2022-07-27T04:27:22.547Z,15.39
2022-07-27T04:30:30.506Z,15.43
2022-07-27T04:33:38.833Z,15.45
2022-07-27T04:36:46.858Z,15.49
2022-07-27T04:39:54.836Z,15.52
2022-07-27T04:43:03.035Z,15.59
2022-07-27T04:46:15.109Z,15.64
2022-07-27T04:49:13.408Z,15.74
2022-07-27T04:52:26.418Z,15.79
2022-07-27T04:55:24.938Z,15.84
2022-07-27T04:58:32.810Z,15.92
2022-07-27T05:01:40.782Z,16.09
2022-07-27T05:04:49.055Z,16.04
2022-07-27T05:07:56.554Z,15.94
2022-07-27T05:11:04.965Z,15.96
2022-07-27T05:14:13.319Z,15.79
2022-07-27T05:17:20.805Z,15.85
2022-07-27T05:20:29.204Z,15.82
2022-07-27T05:23:37.434Z,15.85
2022-07-27T05:26:44.890Z,15.81
2022-07-27T05:29:53.042Z,15.76
2022-07-27T05:33:00.539Z,15.92
2022-07-27T05:36:08.706Z,16.04
2022-07-27T05:39:17.342Z,16.16
2022-07-27T05:42:25.354Z,16.30
2022-07-27T05:45:33.211Z,16.27
2022-07-27T05:48:40.894Z,16.34
2022-07-27T05:51:49.653Z,16.48
2022-07-27T05:54:57.927Z,16.58
2022-07-27T05:58:05.734Z,16.56
2022-07-27T06:01:14.052Z,16.63
2022-07-27T06:04:22.122Z,16.68
2022-07-27T06:07:30.072Z,16.63
2022-07-27T06:10:38.354Z,16.65
2022-07-27T06:13:45.943Z,16.56
2022-07-27T06:16:54.325Z,16.67
2022-07-27T06:20:02.725Z,16.80
2022-07-27T06:23:10.254Z,16.90
2022-07-27T06:26:18.698Z,16.95
2022-07-27T06:29:26.703Z,16.95
2022-07-27T06:32:34.110Z,16.99
2022-07-27T06:35:43.128Z,17.06
2022-07-27T06:38:51.665Z,17.06
2022-07-27T06:42:00.024Z,17.08
2022-07-27T06:45:08.374Z,16.93
2022-07-27T06:48:16.126Z,16.96
2022-07-27T06:51:24.112Z,16.96
2022-07-27T06:54:32.607Z,17.11
2022-07-27T06:57:40.130Z,17.41
2022-07-27T07:00:48.202Z,17.53
2022-07-27T07:03:56.387Z,17.71
2022-07-27T07:07:07.262Z,18.09
2022-07-27T07:10:15.161Z,18.09
2022-07-27T07:13:23.105Z,18.02
2022-07-27T07:16:31.373Z,18.17
2022-07-27T07:19:38.924Z,18.25
2022-07-27T07:22:47.179Z,18.39
2022-07-27T07:25:55.531Z,18.29
2022-07-27T07:29:03.065Z,18.42
2022-07-27T07:32:11.601Z,18.22
2022-07-27T07:35:11.518Z,18.00
2022-07-27T07:38:19.389Z,17.97
2022-07-27T07:41:27.812Z,18.28
2022-07-27T07:44:35.722Z,18.55
2022-07-27T07:47:43.627Z,18.52
2022-07-27T07:50:53.410Z,18.55
2022-07-27T07:54:01.586Z,18.83
2022-07-27T07:57:09.338Z,19.38
2022-07-27T08:00:17.109Z,19.47
2022-07-27T08:03:25.303Z,19.38
2022-07-27T08:06:33.181Z,19.39
2022-07-27T08:09:41.001Z,19.28
2022-07-27T08:12:49.411Z,18.99
2022-07-27T08:15:57.596Z,18.91
2022-07-27T08:19:05.285Z,19.21
2022-07-27T08:22:13.294Z,19.51
2022-07-27T08:25:20.969Z,19.20
2022-07-27T08:28:32.192Z,18.84
2022-07-27T08:31:52.289Z,19.02
2022-07-27T08:34:38.414Z,19.38
2022-07-27T08:37:46.559Z,19.55
2022-07-27T08:40:54.401Z,19.53
2022-07-27T08:44:02.315Z,19.58
2022-07-27T08:47:10.501Z,19.87
2022-07-27T08:50:18.455Z,20.39
2022-07-27T08:53:26.367Z,20.61
2022-07-27T08:56:31.807Z,20.28
2022-07-27T08:59:40.029Z,19.95
2022-07-27T09:02:47.608Z,19.83
2022-07-27T09:05:55.897Z,19.60
2022-07-27T09:09:04.231Z,20.12
2022-07-27T09:12:11.829Z,20.51
2022-07-27T09:15:20.194Z,20.00
2022-07-27T09:18:28.445Z,19.79
2022-07-27T09:21:35.915Z,19.88
2022-07-27T09:24:47.222Z,20.05
2022-07-27T09:27:45.760Z,20.09
2022-07-27T09:30:53.880Z,20.30
2022-07-27T09:34:01.950Z,20.50
2022-07-27T09:37:09.441Z,20.38
2022-07-27T09:40:22.559Z,20.28
2022-07-27T09:46:27.241Z,20.13
2022-07-27T09:49:35.066Z,20.54
2022-07-27T09:52:43.029Z,21.05
2022-07-27T09:55:53.342Z,21.53
2022-07-27T09:58:54.183Z,21.83
2022-07-27T10:02:02.560Z,21.82
2022-07-27T10:05:10.706Z,21.76
2022-07-27T10:08:18.915Z,21.24
2022-07-27T10:11:27.443Z,20.83
2022-07-27T10:14:34.874Z,20.34
2022-07-27T10:17:44.148Z,20.13
2022-07-27T10:20:52.495Z,20.25
2022-07-27T10:23:59.908Z,20.64
2022-07-27T10:27:08.116Z,21.29
2022-07-27T10:30:17.566Z,21.88
2022-07-27T10:33:21.463Z,21.99
2022-07-27T10:36:29.949Z,22.17
2022-07-27T10:39:38.063Z,21.97
2022-07-27T10:42:50.360Z,21.74
2022-07-27T10:46:01.359Z,21.71
2022-07-27T10:48:56.165Z,21.46
2022-07-27T10:52:03.938Z,21.02
2022-07-27T10:55:11.868Z,21.06
2022-07-27T10:58:20.300Z,21.42
2022-07-27T11:01:28.238Z,21.72
2022-07-27T11:04:36.118Z,21.64
2022-07-27T11:07:46.377Z,21.82
2022-07-27T11:10:49.484Z,21.95
2022-07-27T11:13:57.763Z,22.64
2022-07-27T11:20:11.024Z,22.64
2022-07-27T11:26:27.119Z,23.22
2022-07-27T11:29:34.963Z,22.86
2022-07-27T11:32:37.694Z,22.19
2022-07-27T11:35:45.299Z,22.57
2022-07-27T11:38:53.954Z,22.87
2022-07-27T11:42:08.680Z,22.71
2022-07-27T11:45:07.000Z,22.09
2022-07-27T11:48:15.080Z,22.02
2022-07-27T11:51:22.920Z,22.10
2022-07-27T11:54:30.787Z,22.38
2022-07-27T11:57:38.654Z,22.50
2022-07-27T12:00:47.076Z,22.68
2022-07-27T12:03:55.026Z,22.74
2022-07-27T12:07:02.765Z,22.67
2022-07-27T12:10:11.089Z,23.15
2022-07-27T12:13:18.604Z,23.75
2022-07-27T12:16:26.890Z,23.55
2022-07-27T12:19:35.102Z,22.90
2022-07-27T12:22:42.556Z,22.27
2022-07-27T12:25:50.888Z,21.85
2022-07-27T12:28:59.277Z,22.44
2022-07-27T12:32:06.773Z,23.42
2022-07-27T12:35:14.980Z,23.95
2022-07-27T12:39:17.637Z,24.22
2022-07-27T12:42:46.597Z,24.23
2022-07-27T12:45:47.965Z,24.10
2022-07-27T12:48:55.813Z,23.57
2022-07-27T12:52:04.338Z,23.31
2022-07-27T12:55:15.460Z,23.08
2022-07-27T12:58:13.525Z,22.56
2022-07-27T13:01:20.938Z,22.20
2022-07-27T13:04:29.315Z,22.22
2022-07-27T13:07:37.094Z,22.23
2022-07-27T13:10:44.968Z,22.19
2022-07-27T13:13:53.173Z,22.17
2022-07-27T13:17:01.136Z,22.56
2022-07-27T13:20:09.162Z,22.78
2022-07-27T13:23:17.173Z,22.60
2022-07-27T13:26:25.204Z,22.38
2022-07-27T13:29:25.115Z,22.14
2022-07-27T13:32:33.670Z,22.02
2022-07-27T13:35:41.305Z,22.31
2022-07-27T13:38:49.931Z,22.80
2022-07-27T13:41:58.221Z,23.04
2022-07-27T13:45:11.312Z,22.71
2022-07-27T13:48:09.333Z,22.64
2022-07-27T13:51:17.420Z,22.53
2022-07-27T13:54:25.928Z,22.39
2022-07-27T13:57:34.786Z,22.41
2022-07-27T14:00:43.227Z,22.60
2022-07-27T14:03:51.350Z,22.60
2022-07-27T14:07:00.037Z,22.35
2022-07-27T14:10:08.270Z,22.23
2022-07-27T14:13:16.705Z,22.37
2022-07-27T14:16:25.053Z,22.39
2022-07-27T14:19:33.425Z,22.41
2022-07-27T14:22:42.197Z,22.69
2022-07-27T14:25:50.105Z,22.53
2022-07-27T14:28:58.997Z,22.37
2022-07-27T14:32:07.891Z,22.41
2022-07-27T14:35:15.633Z,22.17
2022-07-27T14:38:26.957Z,22.20
2022-07-27T14:41:27.601Z,22.23
2022-07-27T14:44:36.169Z,22.39
2022-07-27T14:47:44.344Z,22.54
2022-07-27T14:50:52.546Z,22.69
2022-07-27T14:54:01.338Z,22.78
2022-07-27T14:57:09.348Z,22.90
2022-07-27T15:00:17.680Z,23.17
2022-07-27T15:03:26.129Z,23.27
2022-07-27T15:06:38.840Z,23.86
2022-07-27T15:09:37.063Z,23.92
2022-07-27T15:12:45.543Z,23.94
2022-07-27T15:15:54.196Z,23.97
2022-07-27T15:19:02.374Z,24.20
2022-07-27T15:22:11.752Z,23.79
2022-07-27T15:25:19.654Z,23.24
2022-07-27T15:28:28.218Z,23.53
2022-07-27T15:31:36.093Z,23.79
2022-07-27T15:34:44.013Z,23.82
2022-07-27T15:37:53.896Z,23.98
2022-07-27T15:41:01.911Z,24.16
2022-07-27T15:44:09.949Z,23.71
2022-07-27T15:47:18.057Z,23.04
2022-07-27T15:50:26.216Z,22.93
2022-07-27T15:53:34.600Z,22.87
2022-07-27T15:56:42.141Z,22.93
2022-07-27T15:59:50.251Z,22.71
2022-07-27T16:02:57.994Z,22.78
2022-07-27T16:06:06.316Z,22.89
2022-07-27T16:09:14.804Z,22.90
2022-07-27T16:12:23.417Z,22.96
2022-07-27T16:15:30.851Z,22.86
2022-07-27T16:18:39.469Z,22.90
2022-07-27T16:21:54.924Z,23.47
2022-07-27T16:24:52.621Z,23.65
2022-07-27T16:28:01.000Z,23.31
2022-07-27T16:31:08.564Z,22.99
2022-07-27T16:34:17.266Z,23.04
2022-07-27T16:37:24.693Z,22.93
2022-07-27T16:40:32.763Z,22.46
2022-07-27T16:43:40.777Z,22.32
2022-07-27T16:46:49.036Z,22.20
2022-07-27T16:49:56.989Z,22.14
2022-07-27T16:53:05.762Z,22.14
2022-07-27T16:56:13.712Z,22.02
2022-07-27T16:59:21.153Z,21.82
2022-07-27T17:02:29.523Z,21.64
2022-07-27T17:05:37.475Z,21.66
2022-07-27T17:08:45.503Z,21.76
2022-07-27T17:11:53.747Z,21.75
2022-07-27T17:15:03.335Z,21.78
2022-07-27T17:18:11.860Z,21.85
2022-07-27T17:21:19.813Z,21.74
2022-07-27T17:24:27.792Z,21.67
2022-07-27T17:27:36.045Z,21.42
2022-07-27T17:30:44.733Z,21.34
2022-07-27T17:33:53.167Z,21.41
2022-07-27T17:37:00.973Z,21.41
2022-07-27T17:40:09.169Z,21.27
2022-07-27T17:43:17.950Z,21.16
2022-07-27T17:46:25.709Z,21.09
2022-07-27T17:49:34.457Z,21.04
2022-07-27T17:52:44.324Z,20.95
2022-07-27T17:55:52.104Z,20.96
2022-07-27T17:59:14.288Z,20.89
2022-07-27T18:02:06.939Z,20.81
2022-07-27T18:05:15.117Z,20.65
2022-07-27T18:08:23.718Z,20.53
2022-07-27T18:11:31.556Z,20.39
2022-07-27T18:14:41.021Z,20.34
2022-07-27T18:17:50.081Z,20.24
2022-07-27T18:20:57.694Z,20.18
2022-07-27T18:24:06.465Z,20.12
2022-07-27T18:27:06.655Z,20.00
2022-07-27T18:30:14.824Z,19.98
2022-07-27T18:33:23.006Z,19.86
2022-07-27T18:36:30.707Z,19.76
2022-07-27T18:39:38.682Z,19.66
2022-07-27T18:42:46.146Z,19.58
2022-07-27T18:45:53.947Z,19.53
2022-07-27T18:49:02.773Z,19.46
2022-07-27T18:52:10.433Z,19.35
2022-07-27T18:55:18.666Z,19.21
2022-07-27T18:58:26.487Z,19.14
2022-07-27T19:01:34.424Z,18.99
2022-07-27T19:04:42.769Z,18.84
2022-07-27T19:07:50.203Z,18.76
2022-07-27T19:10:57.861Z,18.67
2022-07-27T19:14:05.264Z,18.57
2022-07-27T19:17:15.002Z,18.37
2022-07-27T19:20:23.335Z,18.22
2022-07-27T19:23:30.764Z,17.99
2022-07-27T19:26:38.774Z,17.79
2022-07-27T19:29:47.007Z,17.57
2022-07-27T19:32:54.816Z,17.38
2022-07-27T19:36:02.657Z,17.22
2022-07-27T19:39:11.055Z,17.08
2022-07-27T19:42:19.031Z,17.03
2022-07-27T19:45:26.311Z,17.00
2022-07-27T19:48:33.747Z,16.93
2022-07-27T19:51:41.585Z,16.74
2022-07-27T19:54:49.445Z,16.62
2022-07-27T19:57:57.019Z,16.55
2022-07-27T20:01:04.799Z,16.48
2022-07-27T20:04:07.158Z,16.45
2022-07-27T20:07:15.562Z,16.41
2022-07-27T20:10:23.503Z,16.30
2022-07-27T20:13:31.090Z,16.22
2022-07-27T20:16:39.479Z,16.25
2022-07-27T20:19:47.305Z,16.27
2022-07-27T20:22:55.339Z,16.33
2022-07-27T20:26:03.763Z,16.30
2022-07-27T20:29:11.603Z,16.22
2022-07-27T20:32:20.222Z,16.18
2022-07-27T20:35:36.610Z,16.14
2022-07-27T20:38:33.067Z,16.04
2022-07-27T20:41:41.280Z,16.12
2022-07-27T20:44:49.803Z,16.09
2022-07-27T20:47:57.295Z,16.20
2022-07-27T20:51:05.491Z,16.18
2022-07-27T20:54:13.003Z,16.12
2022-07-27T20:57:21.121Z,16.07
2022-07-27T21:00:29.461Z,16.01
2022-07-27T21:03:37.455Z,16.01
2022-07-27T21:06:45.087Z,15.97
2022-07-27T21:09:52.679Z,16.03
2022-07-27T21:13:01.517Z,16.06
2022-07-27T21:16:09.379Z,15.96
2022-07-27T21:19:17.499Z,15.93
2022-07-27T21:22:25.838Z,15.85
2022-07-27T21:25:33.793Z,15.86
2022-07-27T21:28:41.663Z,15.97
2022-07-27T21:31:50.323Z,16.04
2022-07-27T21:34:57.820Z,16.11
2022-07-27T21:38:06.254Z,16.04
2022-07-27T21:41:14.743Z,16.00
2022-07-27T21:44:22.228Z,15.89
2022-07-27T21:47:30.361Z,15.82
2022-07-27T21:50:38.097Z,15.78
2022-07-27T21:53:46.138Z,15.74
2022-07-27T21:56:53.787Z,15.70
2022-07-27T22:00:01.870Z,15.61
2022-07-27T22:03:09.592Z,15.52
2022-07-27T22:06:17.529Z,15.48
2022-07-27T22:09:25.480Z,15.39
2022-07-27T22:12:33.336Z,15.35
2022-07-27T22:14:43.405Z,15.33
2022-07-27T22:17:33.963Z,15.27
2022-07-27T22:20:41.496Z,15.26
2022-07-27T22:23:49.920Z,15.20
2022-07-27T22:26:57.436Z,15.12
2022-07-27T22:30:04.956Z,15.05
2022-07-27T22:33:13.376Z,14.99
2022-07-27T22:36:21.340Z,14.94
2022-07-27T22:39:29.252Z,14.93
2022-07-27T22:42:37.662Z,14.94
2022-07-27T22:45:45.621Z,14.95
2022-07-27T22:48:53.561Z,14.91
2022-07-27T22:52:01.754Z,14.83
2022-07-27T22:55:09.827Z,14.71
2022-07-27T22:58:17.845Z,14.62
2022-07-27T23:01:45.796Z,14.47
2022-07-27T23:04:31.239Z,14.27
2022-07-27T23:07:39.035Z,14.02
2022-07-27T23:10:46.975Z,13.80
2022-07-27T23:13:55.119Z,13.61
2022-07-27T23:17:03.101Z,13.49
2022-07-27T23:20:10.928Z,13.37
2022-07-27T23:23:19.445Z,13.30
2022-07-27T23:26:27.838Z,13.24
2022-07-27T23:29:35.969Z,13.18
2022-07-27T23:32:44.057Z,13.14
2022-07-27T23:35:51.542Z,13.07
2022-07-27T23:38:59.928Z,13.04
2022-07-27T23:42:07.880Z,13.02
2022-07-27T23:45:15.939Z,12.99
2022-07-27T23:48:25.103Z,12.92
2022-07-27T23:51:33.490Z,12.85
2022-07-27T23:54:41.079Z,12.81
2022-07-27T23:57:49.395Z,12.75
